Time;durP1;ratioP1;P1;durP2;ratioP2;P2;SDS_P1;SDS_P2;PMS_P1;PMS_P2;Temp;Humidity;BMP_temperature;BMP_pressure;BME280_temperature;BME280_humidity;BME280_pressure;Samples;Min_cycle;Max_cycle;Signal;HPM_P1;HPM_P2
2023/11/13 00:00:13;;;;;;;0.68;0.68;;;;;;;;;;1036883;28;20490;-74
2023/11/13 00:00:44;;;;;;;2.35;2.15;;;;;;;;;;1038756;28;20033;-74
2023/11/13 00:01:15;;;;;;;0.60;0.60;;;;;;;;;;1039243;28;20098;-74
2023/11/13 00:01:45;;;;;;;2.58;0.60;;;;;;;;;;1039358;28;20032;-74
2023/11/13 00:02:16;;;;;;;0.68;0.68;;;;;;;;;;1039226;28;20134;-74
2023/11/13 00:02:46;;;;;;;1.23;1.23;;;;;;;;;;1039120;28;20107;-74
2023/11/13 00:03:17;;;;;;;1.65;0.95;;;;;;;;;;1039572;28;20071;-74
2023/11/13 00:03:48;;;;;;;0.85;0.85;;;;;;;;;;1039503;28;20384;-74
2023/11/13 00:04:19;;;;;;;0.73;0.73;;;;;;;;;;1039259;28;20021;-74
2023/11/13 00:04:50;;;;;;;1.23;1.13;;;;;;;;;;1038918;28;20030;-74
2023/11/13 00:05:21;;;;;;;0.40;0.40;;;;;;;;;;1039419;28;20021;-74
2023/11/13 00:05:51;;;;;;;2.92;0.95;;;;;;;;;;1039400;28;20021;-74
2023/11/13 00:06:22;;;;;;;0.47;0.47;;;;;;;;;;1038875;28;20021;-74
2023/11/13 00:06:52;;;;;;;9.43;1.38;;;;;;;;;;1039127;28;20030;-74
2023/11/13 00:07:23;;;;;;;1.63;1.52;;;;;;;;;;1035942;28;20026;-74
2023/11/13 00:07:56;;;;;;;1.77;1.58;;;;;;;;;;1034426;28;20140;-74
2023/11/13 00:08:26;;;;;;;0.95;0.95;;;;;;;;;;1031879;28;20030;-74
2023/11/13 00:08:57;;;;;;;2.78;2.05;;;;;;;;;;1031216;28;20455;-74
2023/11/13 00:09:27;;;;;;;0.85;0.85;;;;;;;;;;1033364;28;20017;-74
2023/11/13 00:09:58;;;;;;;0.47;0.47;;;;;;;;;;1035223;28;20029;-74
2023/11/13 00:10:28;;;;;;;1.30;1.08;;;;;;;;;;1038877;28;20274;-74
2023/11/13 00:10:59;;;;;;;0.32;0.32;;;;;;;;;;1039466;28;20732;-74
2023/11/13 00:11:29;;;;;;;0.80;0.80;;;;;;;;;;1039315;28;20053;-74
2023/11/13 00:12:00;;;;;;;2.28;2.00;;;;;;;;;;1038826;28;20057;-74
2023/11/13 00:12:30;;;;;;;0.63;0.50;;;;;;;;;;1039167;28;20025;-74
2023/11/13 00:13:01;;;;;;;1.73;1.63;;;;;;;;;;1039197;28;20061;-73
2023/11/13 00:13:32;;;;;;;0.52;0.52;;;;;;;;;;1039116;28;20485;-73
2023/11/13 00:14:02;;;;;;;1.67;1.58;;;;;;;;;;1039312;28;20108;-74
2023/11/13 00:14:33;;;;;;;0.20;0.20;;;;;;;;;;1038889;28;20497;-74
2023/11/13 00:15:04;;;;;;;0.40;0.40;;;;;;;;;;1039121;28;20577;-74
2023/11/13 00:15:34;;;;;;;2.20;1.13;;;;;;;;;;1038673;28;20029;-74
2023/11/13 00:16:05;;;;;;;1.58;1.48;;;;;;;;;;1038851;28;20113;-74
2023/11/13 00:16:35;;;;;;;1.65;1.38;;;;;;;;;;1039266;28;20033;-74
2023/11/13 00:17:06;;;;;;;0.22;0.22;;;;;;;;;;1039343;28;20025;-74
2023/11/13 00:17:36;;;;;;;2.08;0.98;;;;;;;;;;1039178;28;20444;-74
2023/11/13 00:18:07;;;;;;;1.73;0.50;;;;;;;;;;1039409;28;20025;-74
2023/11/13 00:18:37;;;;;;;1.30;1.25;;;;;;;;;;1039296;28;20021;-74
2023/11/13 00:19:08;;;;;;;0.88;0.88;;;;;;;;;;1039159;28;20119;-74
2023/11/13 00:19:38;;;;;;;2.80;2.60;;;;;;;;;;1039532;28;20148;-74
2023/11/13 00:20:09;;;;;;;0.35;0.35;;;;;;;;;;1039894;28;20449;-74
2023/11/13 00:20:39;;;;;;;0.38;0.38;;;;;;;;;;1039408;28;20052;-73
2023/11/13 00:21:15;;;;;;;0.30;0.30;;;;;;;;;;1040260;28;20021;-74
2023/11/13 00:21:45;;;;;;;1.15;1.08;;;;;;;;;;1039986;28;20021;-74
2023/11/13 00:22:16;;;;;;;0.20;0.20;;;;;;;;;;1039986;28;20500;-74
2023/11/13 00:22:46;;;;;;;2.22;1.88;;;;;;;;;;1039822;28;20449;-74
2023/11/13 00:23:17;;;;;;;1.05;1.05;;;;;;;;;;1040337;28;20030;-74
2023/11/13 00:23:48;;;;;;;0.98;0.80;;;;;;;;;;1040193;28;20036;-74
2023/11/13 00:24:19;;;;;;;0.30;0.30;;;;;;;;;;1039986;28;20593;-74
2023/11/13 00:24:50;;;;;;;0.20;0.20;;;;;;;;;;1039470;28;20032;-74
2023/11/13 00:25:21;;;;;;;0.15;0.15;;;;;;;;;;1039772;28;20028;-74
2023/11/13 00:25:51;;;;;;;0.68;0.68;;;;;;;;;;1039748;28;20029;-74
2023/11/13 00:26:21;;;;;;;0.22;0.22;;;;;;;;;;1039368;28;20148;-73
2023/11/13 00:26:52;;;;;;;0.88;0.70;;;;;;;;;;1039572;28;20025;-73
2023/11/13 00:27:22;;;;;;;0.93;0.85;;;;;;;;;;1040143;28;20071;-73
2023/11/13 00:27:53;;;;;;;0.82;0.82;;;;;;;;;;1040183;28;20025;-73
2023/11/13 00:28:24;;;;;;;0.57;0.57;;;;;;;;;;1040066;28;20116;-73
2023/11/13 00:28:54;;;;;;;1.23;1.17;;;;;;;;;;1039721;28;20092;-74
2023/11/13 00:29:25;;;;;;;1.15;0.63;;;;;;;;;;1039683;28;20116;-74
2023/11/13 00:29:56;;;;;;;0.28;0.28;;;;;;;;;;1037439;28;20033;-73
2023/11/13 00:30:26;;;;;;;2.05;1.73;;;;;;;;;;1037530;28;20029;-73
2023/11/13 00:30:57;;;;;;;0.77;0.77;;;;;;;;;;1037275;28;20370;-74
2023/11/13 00:31:28;;;;;;;0.50;0.50;;;;;;;;;;1037815;28;20021;-74
2023/11/13 00:31:58;;;;;;;1.08;1.05;;;;;;;;;;1039818;28;20120;-74
2023/11/13 00:32:29;;;;;;;0.35;0.35;;;;;;;;;;1039884;28;20061;-74
2023/11/13 00:32:59;;;;;;;0.30;0.30;;;;;;;;;;1039917;28;20060;-74
2023/11/13 00:33:30;;;;;;;0.43;0.43;;;;;;;;;;1040130;28;20394;-74
2023/11/13 00:34:00;;;;;;;0.90;0.90;;;;;;;;;;1039778;28;20036;-74
2023/11/13 00:34:30;;;;;;;1.30;1.20;;;;;;;;;;1040020;28;20041;-73
2023/11/13 00:35:01;;;;;;;0.93;0.93;;;;;;;;;;1039971;28;20552;-73
2023/11/13 00:35:31;;;;;;;0.32;0.32;;;;;;;;;;1039525;28;20032;-74
2023/11/13 00:36:02;;;;;;;0.38;0.38;;;;;;;;;;1039694;28;20017;-74
2023/11/13 00:36:33;;;;;;;0.55;0.52;;;;;;;;;;1039715;28;20021;-74
2023/11/13 00:37:04;;;;;;;0.40;0.40;;;;;;;;;;1039922;28;20018;-74
2023/11/13 00:37:34;;;;;;;0.57;0.57;;;;;;;;;;1039727;28;20065;-74
2023/11/13 00:38:05;;;;;;;1.30;0.80;;;;;;;;;;1039515;28;20025;-73
2023/11/13 00:38:35;;;;;;;1.08;1.08;;;;;;;;;;1039430;28;20079;-73
2023/11/13 00:39:10;;;;;;;3.05;2.22;;;;;;;;;;1040061;28;20021;-73
2023/11/13 00:39:40;;;;;;;0.63;0.63;;;;;;;;;;1039689;28;20064;-73
2023/11/13 00:40:12;;;;;;;4.32;1.30;;;;;;;;;;1039478;28;20024;-73
2023/11/13 00:40:43;;;;;;;2.25;1.90;;;;;;;;;;1039381;28;20080;-73
2023/11/13 00:41:13;;;;;;;0.85;0.60;;;;;;;;;;1037615;28;20104;-73
2023/11/13 00:41:44;;;;;;;0.40;0.40;;;;;;;;;;1037653;28;20028;-73
2023/11/13 00:42:16;;;;;;;0.77;0.77;;;;;;;;;;1039618;28;20112;-74
2023/11/13 00:42:46;;;;;;;1.55;1.20;;;;;;;;;;1039458;28;20041;-74
2023/11/13 00:43:16;;;;;;;0.88;0.85;;;;;;;;;;1040230;28;20021;-74
2023/11/13 00:43:47;;;;;;;0.93;0.93;;;;;;;;;;1040087;28;20029;-74
2023/11/13 00:44:17;;;;;;;0.20;0.20;;;;;;;;;;1039788;28;20124;-74
2023/11/13 00:44:48;;;;;;;1.40;1.30;;;;;;;;;;1039871;28;20642;-74
2023/11/13 00:45:18;;;;;;;2.75;0.80;;;;;;;;;;1040021;28;20021;-74
2023/11/13 00:45:49;;;;;;;1.05;0.95;;;;;;;;;;1039898;28;20142;-74
2023/11/13 00:46:19;;;;;;;0.55;0.55;;;;;;;;;;1041986;28;20025;-74
2023/11/13 00:46:50;;;;;;;0.35;0.35;;;;;;;;;;1043408;28;20025;-74
2023/11/13 00:47:21;;;;;;;0.88;0.88;;;;;;;;;;1043885;28;20033;-74
2023/11/13 00:47:52;;;;;;;0.40;0.40;;;;;;;;;;1043836;28;20021;-74
2023/11/13 00:48:23;;;;;;;0.90;0.90;;;;;;;;;;1040043;28;20377;-74
2023/11/13 00:48:54;;;;;;;1.17;1.17;;;;;;;;;;1038900;28;20111;-74
2023/11/13 00:49:24;;;;;;;0.60;0.57;;;;;;;;;;1038879;28;20036;-74
2023/11/13 00:49:54;;;;;;;0.80;0.80;;;;;;;;;;1039950;28;20021;-74
2023/11/13 00:50:26;;;;;;;0.40;0.40;;;;;;;;;;1039732;28;20122;-74
2023/11/13 00:50:57;;;;;;;0.52;0.52;;;;;;;;;;1038656;28;20029;-74
2023/11/13 00:51:28;;;;;;;2.75;2.22;;;;;;;;;;1039959;28;20029;-74
2023/11/13 00:51:59;;;;;;;0.40;0.40;;;;;;;;;;1039962;28;20029;-74
2023/11/13 00:52:29;;;;;;;0.30;0.30;;;;;;;;;;1039803;28;20025;-74
2023/11/13 00:53:00;;;;;;;0.60;0.60;;;;;;;;;;1039857;28;20028;-74
2023/11/13 00:53:36;;;;;;;0.30;0.30;;;;;;;;;;1039952;28;20576;-74
2023/11/13 00:54:07;;;;;;;1.05;0.95;;;;;;;;;;1039661;28;20029;-74
2023/11/13 00:54:37;;;;;;;1.17;1.10;;;;;;;;;;1037326;28;20511;-74
2023/11/13 00:55:09;;;;;;;0.55;0.55;;;;;;;;;;1037036;28;20017;-74
2023/11/13 00:55:39;;;;;;;0.35;0.35;;;;;;;;;;1039040;28;20029;-73
2023/11/13 00:56:10;;;;;;;8.60;0.98;;;;;;;;;;1039554;28;20025;-71
2023/11/13 00:56:40;;;;;;;0.70;0.68;;;;;;;;;;1039835;28;20028;-72
2023/11/13 00:57:11;;;;;;;1.33;1.25;;;;;;;;;;1039669;28;20491;-73
2023/11/13 00:57:41;;;;;;;1.23;1.13;;;;;;;;;;1038255;28;20392;-73
2023/11/13 00:58:12;;;;;;;1.60;0.90;;;;;;;;;;1039285;28;20564;-73
2023/11/13 00:58:42;;;;;;;2.67;1.77;;;;;;;;;;1039404;28;20025;-73
2023/11/13 00:59:13;;;;;;;0.30;0.30;;;;;;;;;;1039919;28;20029;-73
2023/11/13 00:59:43;;;;;;;0.32;0.32;;;;;;;;;;1039741;28;20659;-73
2023/11/13 01:00:14;;;;;;;0.50;0.50;;;;;;;;;;1039609;28;20550;-73
2023/11/13 01:00:45;;;;;;;0.40;0.40;;;;;;;;;;1039622;28;20056;-74
2023/11/13 01:01:16;;;;;;;0.43;0.43;;;;;;;;;;1039803;28;20393;-74
2023/11/13 01:01:46;;;;;;;0.20;0.20;;;;;;;;;;1039857;28;20163;-74
2023/11/13 01:02:17;;;;;;;2.33;1.10;;;;;;;;;;1039918;28;20104;-74
2023/11/13 01:02:47;;;;;;;0.20;0.20;;;;;;;;;;1039452;28;20104;-74
2023/11/13 01:03:18;;;;;;;2.67;1.02;;;;;;;;;;1039991;28;20100;-74
2023/11/13 01:03:48;;;;;;;2.45;2.08;;;;;;;;;;1040070;28;20025;-74
2023/11/13 01:04:19;;;;;;;0.77;0.77;;;;;;;;;;1039978;28;20056;-73
2023/11/13 01:04:49;;;;;;;6.13;2.08;;;;;;;;;;1039487;28;20028;-73
2023/11/13 01:05:20;;;;;;;11.20;2.15;;;;;;;;;;1039530;28;20032;-73
2023/11/13 01:05:51;;;;;;;7.80;2.67;;;;;;;;;;1039530;28;20509;-74
2023/11/13 01:06:22;;;;;;;15.00;4.15;;;;;;;;;;1039350;28;20025;-74
2023/11/13 01:06:55;;;;;;;10.73;4.45;;;;;;;;;;1039679;28;20389;-74
2023/11/13 01:07:25;;;;;;;3.22;2.40;;;;;;;;;;1039302;28;20068;-74
2023/11/13 01:07:56;;;;;;;22.38;4.95;;;;;;;;;;1039472;28;20032;-74
2023/11/13 01:08:26;;;;;;;7.68;2.47;;;;;;;;;;1039743;28;20057;-74
2023/11/13 01:08:58;;;;;;;10.15;2.17;;;;;;;;;;1039606;28;20405;-73
2023/11/13 01:09:29;;;;;;;1.52;1.42;;;;;;;;;;1039741;28;20029;-73
2023/11/13 01:09:59;;;;;;;1.63;1.52;;;;;;;;;;1039388;28;20486;-74
2023/11/13 01:10:30;;;;;;;7.47;2.20;;;;;;;;;;1039734;28;20025;-73
2023/11/13 01:11:00;;;;;;;3.17;2.47;;;;;;;;;;1038721;28;20041;-73
2023/11/13 01:11:31;;;;;;;2.78;0.98;;;;;;;;;;1038813;28;20101;-74
2023/11/13 01:12:01;;;;;;;16.88;3.83;;;;;;;;;;1039786;28;20033;-74
2023/11/13 01:12:32;;;;;;;7.93;2.30;;;;;;;;;;1038824;28;20029;-74
2023/11/13 01:13:02;;;;;;;1.90;1.75;;;;;;;;;;1039139;28;20057;-74
2023/11/13 01:13:33;;;;;;;13.27;2.28;;;;;;;;;;1039304;28;20060;-73
2023/11/13 01:14:03;;;;;;;12.25;2.65;;;;;;;;;;1037253;28;20104;-73
2023/11/13 01:14:34;;;;;;;9.90;2.55;;;;;;;;;;1039370;28;20028;-73
2023/11/13 01:15:06;;;;;;;5.32;2.05;;;;;;;;;;1037394;28;20478;-73
2023/11/13 01:15:37;;;;;;;6.07;2.13;;;;;;;;;;1037117;28;20033;-73
2023/11/13 01:16:08;;;;;;;8.15;2.40;;;;;;;;;;1039569;28;20071;-73
2023/11/13 01:16:38;;;;;;;4.32;2.30;;;;;;;;;;1039396;28;20481;-73
2023/11/13 01:17:09;;;;;;;1.90;1.40;;;;;;;;;;1039592;28;20473;-74
2023/11/13 01:17:40;;;;;;;1.10;1.10;;;;;;;;;;1039221;28;20551;-74
2023/11/13 01:18:10;;;;;;;1.73;1.63;;;;;;;;;;1039382;28;20034;-74
2023/11/13 01:18:41;;;;;;;0.85;0.85;;;;;;;;;;1037198;28;20052;-74
2023/11/13 01:19:12;;;;;;;13.63;2.92;;;;;;;;;;1035833;28;20033;-73
2023/11/13 01:19:42;;;;;;;1.83;0.77;;;;;;;;;;1039249;28;20040;-73
2023/11/13 01:20:13;;;;;;;1.35;0.95;;;;;;;;;;1036977;28;20543;-73
2023/11/13 01:20:44;;;;;;;0.98;0.93;;;;;;;;;;1038012;28;20040;-73
2023/11/13 01:21:15;;;;;;;1.98;1.80;;;;;;;;;;1035903;28;20021;-73
2023/11/13 01:21:45;;;;;;;0.57;0.57;;;;;;;;;;1036950;28;20448;-73
2023/11/13 01:22:16;;;;;;;4.43;1.45;;;;;;;;;;1038234;28;20033;-73
2023/11/13 01:22:46;;;;;;;0.43;0.43;;;;;;;;;;1035718;28;20164;-74
2023/11/13 01:23:17;;;;;;;3.08;1.30;;;;;;;;;;1033963;28;20092;-73
2023/11/13 01:23:48;;;;;;;0.52;0.52;;;;;;;;;;1034537;28;20033;-74
2023/11/13 01:24:18;;;;;;;2.78;2.53;;;;;;;;;;1034220;28;20033;-74
2023/11/13 01:24:49;;;;;;;0.75;0.75;;;;;;;;;;1034120;28;20030;-74
2023/11/13 01:25:19;;;;;;;2.53;0.38;;;;;;;;;;1033712;28;20084;-74
2023/11/13 01:25:50;;;;;;;4.60;1.50;;;;;;;;;;1035059;28;20030;-74
2023/11/13 01:26:20;;;;;;;0.68;0.68;;;;;;;;;;1034112;28;20026;-74
2023/11/13 01:26:51;;;;;;;1.67;1.58;;;;;;;;;;1038983;28;20060;-74
2023/11/13 01:27:22;;;;;;;0.65;0.65;;;;;;;;;;1038748;28;20529;-74
2023/11/13 01:27:53;;;;;;;1.30;1.17;;;;;;;;;;1039092;28;20021;-74
2023/11/13 01:28:23;;;;;;;0.22;0.22;;;;;;;;;;1038092;28;20058;-73
2023/11/13 01:28:54;;;;;;;0.57;0.57;;;;;;;;;;1038036;28;20021;-73
2023/11/13 01:29:24;;;;;;;0.50;0.50;;;;;;;;;;1037495;28;20485;-73
2023/11/13 01:29:54;;;;;;;0.30;0.30;;;;;;;;;;1037862;28;20172;-73
2023/11/13 01:30:25;;;;;;;0.75;0.75;;;;;;;;;;1038768;28;20033;-73
2023/11/13 01:30:56;;;;;;;0.25;0.25;;;;;;;;;;1037600;28;20532;-73
2023/11/13 01:31:26;;;;;;;0.70;0.70;;;;;;;;;;1039424;28;20440;-74
2023/11/13 01:31:56;;;;;;;0.45;0.45;;;;;;;;;;1038572;28;20120;-74
2023/11/13 01:32:27;;;;;;;0.40;0.40;;;;;;;;;;1037700;28;20349;-73
2023/11/13 01:32:58;;;;;;;1.60;1.25;;;;;;;;;;1039204;28;20029;-72
2023/11/13 01:33:28;;;;;;;1.75;1.65;;;;;;;;;;1039244;28;20056;-73
2023/11/13 01:33:59;;;;;;;1.40;1.30;;;;;;;;;;1039388;28;20029;-72
2023/11/13 01:34:29;;;;;;;1.00;0.75;;;;;;;;;;1039196;28;20029;-73
2023/11/13 01:35:00;;;;;;;0.20;0.20;;;;;;;;;;1038382;28;20465;-72
2023/11/13 01:35:30;;;;;;;2.83;2.13;;;;;;;;;;1038351;28;20064;-71
2023/11/13 01:36:01;;;;;;;0.30;0.30;;;;;;;;;;1035993;28;20115;-71
2023/11/13 01:36:31;;;;;;;0.38;0.38;;;;;;;;;;1038265;28;20022;-72
2023/11/13 01:37:02;;;;;;;0.60;0.60;;;;;;;;;;1038696;28;20477;-73
2023/11/13 01:37:32;;;;;;;0.50;0.50;;;;;;;;;;1038076;28;20037;-72
2023/11/13 01:38:03;;;;;;;1.75;1.55;;;;;;;;;;1038188;28;20048;-74
2023/11/13 01:38:34;;;;;;;3.83;1.40;;;;;;;;;;1038753;28;20465;-73
2023/11/13 01:39:05;;;;;;;1.48;1.38;;;;;;;;;;1038627;28;20390;-73
2023/11/13 01:39:35;;;;;;;3.60;2.40;;;;;;;;;;1038947;28;20032;-73
2023/11/13 01:40:07;;;;;;;13.15;2.58;;;;;;;;;;1038092;28;20578;-73
2023/11/13 01:40:41;;;;;;;0.40;0.40;;;;;;;;;;1038665;28;20528;-74
2023/11/13 01:41:11;;;;;;;0.60;0.60;;;;;;;;;;1038652;28;20034;-73
2023/11/13 01:41:42;;;;;;;1.08;0.63;;;;;;;;;;1033858;28;20034;-73
2023/11/13 01:42:15;;;;;;;3.25;0.98;;;;;;;;;;1034034;28;20030;-73
2023/11/13 01:42:47;;;;;;;1.48;1.42;;;;;;;;;;1037025;28;20033;-73
2023/11/13 01:43:18;;;;;;;1.65;1.55;;;;;;;;;;1039097;28;20109;-74
2023/11/13 01:43:49;;;;;;;2.78;1.23;;;;;;;;;;1043162;28;20544;-74
2023/11/13 01:44:20;;;;;;;1.00;1.00;;;;;;;;;;1041878;28;20017;-74
2023/11/13 01:44:51;;;;;;;0.50;0.50;;;;;;;;;;1039064;28;20021;-74
2023/11/13 01:45:21;;;;;;;0.32;0.32;;;;;;;;;;1037660;28;20025;-74
2023/11/13 01:45:56;;;;;;;1.00;0.98;;;;;;;;;;1037459;28;20084;-73
2023/11/13 01:46:28;;;;;;;0.85;0.85;;;;;;;;;;1034277;28;20034;-74
2023/11/13 01:46:59;;;;;;;1.30;0.57;;;;;;;;;;1031315;28;20022;-73
2023/11/13 01:47:30;;;;;;;3.42;0.88;;;;;;;;;;1031754;28;20034;-73
2023/11/13 01:48:00;;;;;;;0.47;0.47;;;;;;;;;;1029501;28;20491;-73
2023/11/13 01:48:31;;;;;;;0.32;0.32;;;;;;;;;;1034375;28;20026;-73
2023/11/13 01:49:03;;;;;;;1.20;1.13;;;;;;;;;;1037841;28;20091;-74
2023/11/13 01:49:33;;;;;;;0.45;0.45;;;;;;;;;;1038670;28;20095;-73
2023/11/13 01:50:08;;;;;;;4.43;2.13;;;;;;;;;;1035935;28;20604;-74
2023/11/13 01:50:39;;;;;;;0.55;0.55;;;;;;;;;;1037018;28;20022;-74
2023/11/13 01:51:09;;;;;;;0.20;0.20;;;;;;;;;;1037250;28;20087;-73
2023/11/13 01:51:40;;;;;;;2.55;2.35;;;;;;;;;;1038244;28;20038;-74
2023/11/13 01:52:11;;;;;;;0.45;0.45;;;;;;;;;;1037680;28;20086;-74
2023/11/13 01:52:42;;;;;;;0.30;0.30;;;;;;;;;;1035957;28;20029;-74
2023/11/13 01:53:14;;;;;;;0.17;0.17;;;;;;;;;;1033499;28;20142;-74
2023/11/13 01:53:45;;;;;;;0.57;0.57;;;;;;;;;;1033934;28;20493;-73
2023/11/13 01:54:16;;;;;;;0.20;0.20;;;;;;;;;;1033705;28;20025;-73
2023/11/13 01:54:46;;;;;;;0.60;0.60;;;;;;;;;;1033500;28;20737;-73
2023/11/13 01:55:17;;;;;;;0.65;0.65;;;;;;;;;;1036845;28;20509;-73
2023/11/13 01:55:48;;;;;;;0.40;0.40;;;;;;;;;;1032769;28;20477;-73
2023/11/13 01:56:20;;;;;;;1.58;1.48;;;;;;;;;;1031875;28;20457;-73
2023/11/13 01:56:51;;;;;;;1.83;1.73;;;;;;;;;;1037600;28;20024;-73
2023/11/13 01:57:24;;;;;;;0.75;0.75;;;;;;;;;;1037798;28;20025;-73
2023/11/13 01:57:55;;;;;;;0.47;0.47;;;;;;;;;;1039067;28;20033;-75
2023/11/13 01:58:26;;;;;;;0.55;0.55;;;;;;;;;;1038201;28;20025;-74
2023/11/13 01:58:58;;;;;;;1.33;1.23;;;;;;;;;;1038313;28;20090;-74
2023/11/13 01:59:28;;;;;;;4.65;1.88;;;;;;;;;;1037857;28;20024;-74
2023/11/13 01:59:59;;;;;;;2.50;1.48;;;;;;;;;;1034992;28;20563;-74
2023/11/13 02:00:31;;;;;;;0.50;0.50;;;;;;;;;;1036017;28;20601;-74
2023/11/13 02:01:01;;;;;;;1.15;1.00;;;;;;;;;;1035489;28;20096;-74
2023/11/13 02:01:32;;;;;;;0.55;0.55;;;;;;;;;;1035780;28;20081;-74
2023/11/13 02:02:03;;;;;;;4.43;1.88;;;;;;;;;;1038217;28;21017;-74
2023/11/13 02:02:34;;;;;;;1.80;1.20;;;;;;;;;;1036606;28;20025;-74
2023/11/13 02:03:05;;;;;;;3.65;1.27;;;;;;;;;;1038263;28;20547;-74
2023/11/13 02:03:37;;;;;;;0.85;0.68;;;;;;;;;;1036913;28;20029;-74
2023/11/13 02:04:08;;;;;;;0.95;0.95;;;;;;;;;;1038607;28;20109;-73
2023/11/13 02:04:39;;;;;;;0.10;0.10;;;;;;;;;;1042367;28;20554;-73
2023/11/13 02:05:09;;;;;;;0.35;0.35;;;;;;;;;;1038123;28;20060;-74
2023/11/13 02:05:41;;;;;;;0.40;0.40;;;;;;;;;;1038344;28;20118;-73
2023/11/13 02:06:12;;;;;;;0.95;0.95;;;;;;;;;;1034522;28;20136;-74
2023/11/13 02:06:44;;;;;;;0.15;0.15;;;;;;;;;;1033798;28;20595;-74
2023/11/13 02:07:14;;;;;;;0.30;0.30;;;;;;;;;;1037338;28;20025;-74
2023/11/13 02:07:45;;;;;;;1.90;1.17;;;;;;;;;;1037352;28;20021;-74
2023/11/13 02:08:16;;;;;;;1.30;0.68;;;;;;;;;;1037299;28;20095;-74
2023/11/13 02:08:46;;;;;;;0.10;0.10;;;;;;;;;;1038788;28;20119;-74
2023/11/13 02:09:17;;;;;;;3.15;0.75;;;;;;;;;;1038688;28;20397;-74
2023/11/13 02:09:49;;;;;;;0.32;0.32;;;;;;;;;;1038899;28;20033;-74
2023/11/13 02:10:20;;;;;;;4.30;1.77;;;;;;;;;;1037860;28;20497;-74
2023/11/13 02:10:51;;;;;;;0.43;0.22;;;;;;;;;;1039200;28;20117;-74
2023/11/13 02:11:22;;;;;;;0.85;0.85;;;;;;;;;;1038855;28;20021;-74
2023/11/13 02:11:53;;;;;;;0.40;0.40;;;;;;;;;;1034534;28;20022;-73
2023/11/13 02:12:26;;;;;;;0.52;0.52;;;;;;;;;;1031749;28;20709;-73
2023/11/13 02:12:56;;;;;;;0.65;0.65;;;;;;;;;;1032218;28;20049;-74
2023/11/13 02:13:27;;;;;;;0.43;0.30;;;;;;;;;;1034040;28;20029;-74
2023/11/13 02:13:58;;;;;;;0.32;0.32;;;;;;;;;;1039055;28;20033;-74
2023/11/13 02:14:29;;;;;;;1.35;1.25;;;;;;;;;;1037297;28;20029;-74
2023/11/13 02:14:59;;;;;;;3.05;0.95;;;;;;;;;;1038712;28;20036;-74
2023/11/13 02:15:31;;;;;;;0.28;0.28;;;;;;;;;;1036326;28;20036;-74
2023/11/13 02:16:02;;;;;;;1.02;0.93;;;;;;;;;;1034807;28;20535;-74
2023/11/13 02:16:34;;;;;;;1.27;1.17;;;;;;;;;;1036556;28;20441;-74
2023/11/13 02:17:05;;;;;;;0.65;0.63;;;;;;;;;;1033926;28;20030;-74
2023/11/13 02:17:36;;;;;;;0.22;0.22;;;;;;;;;;1027981;28;20038;-73
2023/11/13 02:18:06;;;;;;;0.10;0.10;;;;;;;;;;1027605;28;20525;-75
2023/11/13 02:18:37;;;;;;;1.05;0.45;;;;;;;;;;1031506;28;20034;-73
2023/11/13 02:19:07;;;;;;;0.20;0.20;;;;;;;;;;1035185;28;20033;-73
2023/11/13 02:19:38;;;;;;;1.45;0.95;;;;;;;;;;1035075;28;20029;-72
2023/11/13 02:20:09;;;;;;;0.10;0.10;;;;;;;;;;1036564;28;20025;-72
2023/11/13 02:20:39;;;;;;;0.30;0.30;;;;;;;;;;1036823;28;20087;-73
2023/11/13 02:21:10;;;;;;;1.65;1.55;;;;;;;;;;1032349;28;20393;-74
2023/11/13 02:21:40;;;;;;;0.70;0.38;;;;;;;;;;1032979;28;20029;-72
2023/11/13 02:22:11;;;;;;;2.42;1.02;;;;;;;;;;1035766;28;20028;-73
2023/11/13 02:22:41;;;;;;;1.80;1.70;;;;;;;;;;1032800;28;20210;-73
2023/11/13 02:23:15;;;;;;;0.30;0.30;;;;;;;;;;1035517;28;20056;-73
2023/11/13 02:23:46;;;;;;;2.25;1.45;;;;;;;;;;1036843;28;20112;-73
2023/11/13 02:24:17;;;;;;;0.73;0.73;;;;;;;;;;1036339;28;20029;-73
2023/11/13 02:24:47;;;;;;;0.70;0.70;;;;;;;;;;1035913;28;20029;-73
2023/11/13 02:25:21;;;;;;;2.50;1.17;;;;;;;;;;1034988;28;20040;-73
2023/11/13 02:25:53;;;;;;;0.95;0.95;;;;;;;;;;1037223;28;20025;-71
2023/11/13 02:26:24;;;;;;;0.57;0.52;;;;;;;;;;1036660;28;20128;-73
2023/11/13 02:26:54;;;;;;;2.53;0.55;;;;;;;;;;1036943;28;20022;-73
2023/11/13 02:27:26;;;;;;;1.17;1.10;;;;;;;;;;1035452;28;20029;-73
2023/11/13 02:28:01;;;;;;;0.77;0.77;;;;;;;;;;1036554;28;20672;-73
2023/11/13 02:28:31;;;;;;;0.10;0.10;;;;;;;;;;1035876;28;20024;-73
2023/11/13 02:29:01;;;;;;;0.20;0.20;;;;;;;;;;1037896;28;20025;-72
2023/11/13 02:29:32;;;;;;;0.85;0.85;;;;;;;;;;1039091;28;20025;-72
2023/11/13 02:30:03;;;;;;;1.10;1.10;;;;;;;;;;1039851;28;20029;-72
2023/11/13 02:30:36;;;;;;;0.82;0.80;;;;;;;;;;1039514;28;20033;-72
2023/11/13 02:31:07;;;;;;;1.75;0.68;;;;;;;;;;1037218;28;20025;-72
2023/11/13 02:31:53;;;;;;;0.35;0.25;;;;;;;;;;1036049;28;20033;-74
2023/11/13 02:32:24;;;;;;;0.68;0.63;;;;;;;;;;1035120;28;20017;-73
2023/11/13 02:32:55;;;;;;;0.85;0.43;;;;;;;;;;1036173;28;20060;-73
2023/11/13 02:33:25;;;;;;;0.95;0.95;;;;;;;;;;1035829;28;20025;-73
2023/11/13 02:33:56;;;;;;;3.63;0.60;;;;;;;;;;1036217;28;20107;-74
2023/11/13 02:34:26;;;;;;;0.28;0.28;;;;;;;;;;1035014;28;20527;-75
2023/11/13 02:35:00;;;;;;;1.30;1.20;;;;;;;;;;1036362;28;20033;-75
2023/11/13 02:35:30;;;;;;;0.10;0.10;;;;;;;;;;1035766;28;20623;-75
2023/11/13 02:36:01;;;;;;;0.80;0.43;;;;;;;;;;1035118;28;20025;-72
2023/11/13 02:36:31;;;;;;;0.55;0.55;;;;;;;;;;1034077;28;20034;-75
2023/11/13 02:37:02;;;;;;;0.60;0.30;;;;;;;;;;1035889;28;20440;-74
2023/11/13 02:37:32;;;;;;;0.60;0.60;;;;;;;;;;1034673;28;20065;-75
2023/11/13 02:38:03;;;;;;;1.17;0.95;;;;;;;;;;1036893;28;20056;-75
2023/11/13 02:38:36;;;;;;;0.47;0.47;;;;;;;;;;1036749;28;20033;-75
2023/11/13 02:39:08;;;;;;;0.20;0.20;;;;;;;;;;1033045;28;20582;-75
2023/11/13 02:39:39;;;;;;;0.43;0.43;;;;;;;;;;1035376;28;20132;-75
2023/11/13 02:40:10;;;;;;;0.45;0.30;;;;;;;;;;1036645;28;20603;-74
2023/11/13 02:40:40;;;;;;;1.48;1.38;;;;;;;;;;1031659;28;20530;-75
2023/11/13 02:41:11;;;;;;;0.57;0.55;;;;;;;;;;1032307;28;20311;-75
2023/11/13 02:41:41;;;;;;;2.53;0.98;;;;;;;;;;1031272;28;20025;-75
2023/11/13 02:42:12;;;;;;;0.20;0.20;;;;;;;;;;1035722;28;20092;-73
2023/11/13 02:42:43;;;;;;;0.10;0.10;;;;;;;;;;1035294;28;20021;-74
2023/11/13 02:43:13;;;;;;;0.20;0.20;;;;;;;;;;1034513;28;20087;-75
2023/11/13 02:43:45;;;;;;;7.25;1.23;;;;;;;;;;1035633;28;20039;-74
2023/11/13 02:44:16;;;;;;;0.25;0.20;;;;;;;;;;1033988;28;20033;-74
2023/11/13 02:44:47;;;;;;;0.65;0.65;;;;;;;;;;1033917;28;20610;-74
2023/11/13 02:45:18;;;;;;;7.35;2.15;;;;;;;;;;1035836;28;20482;-74
2023/11/13 02:45:48;;;;;;;0.38;0.38;;;;;;;;;;1036800;28;20025;-73
2023/11/13 02:46:19;;;;;;;0.30;0.30;;;;;;;;;;1036905;28;20033;-72
2023/11/13 02:46:51;;;;;;;9.85;0.85;;;;;;;;;;1034824;28;20591;-74
2023/11/13 02:47:23;;;;;;;1.75;1.10;;;;;;;;;;1032644;28;21220;-73
2023/11/13 02:47:56;;;;;;;0.38;0.38;;;;;;;;;;1032014;28;20579;-75
2023/11/13 02:48:30;;;;;;;1.55;1.45;;;;;;;;;;1030378;28;20029;-74
2023/11/13 02:49:01;;;;;;;0.68;0.68;;;;;;;;;;1028035;28;20417;-74
2023/11/13 02:49:31;;;;;;;1.50;1.40;;;;;;;;;;1027857;28;21178;-73
2023/11/13 02:50:02;;;;;;;0.17;0.17;;;;;;;;;;1030915;28;20037;-73
2023/11/13 02:50:33;;;;;;;0.85;0.85;;;;;;;;;;1032681;28;20047;-73
2023/11/13 02:51:04;;;;;;;0.68;0.68;;;;;;;;;;1039512;28;20029;-73
2023/11/13 02:51:34;;;;;;;1.98;1.85;;;;;;;;;;1036351;28;20470;-73
2023/11/13 02:52:05;;;;;;;0.10;0.10;;;;;;;;;;1036479;28;20116;-73
2023/11/13 02:52:35;;;;;;;0.38;0.38;;;;;;;;;;1033444;28;20640;-73
2023/11/13 02:53:06;;;;;;;0.10;0.10;;;;;;;;;;1032855;28;20025;-72
2023/11/13 02:53:36;;;;;;;3.60;1.70;;;;;;;;;;1034722;28;20400;-73
2023/11/13 02:54:07;;;;;;;1.55;1.27;;;;;;;;;;1033236;28;20029;-73
2023/11/13 02:54:38;;;;;;;0.35;0.35;;;;;;;;;;1028337;28;20151;-73
2023/11/13 02:55:08;;;;;;;2.83;1.05;;;;;;;;;;1034531;28;20037;-73
2023/11/13 02:55:39;;;;;;;1.33;0.77;;;;;;;;;;1033271;28;20622;-73
2023/11/13 02:56:10;;;;;;;0.50;0.47;;;;;;;;;;1034586;28;20053;-73
2023/11/13 02:56:41;;;;;;;0.22;0.22;;;;;;;;;;1033047;28;20207;-73
2023/11/13 02:57:12;;;;;;;2.83;2.28;;;;;;;;;;1035019;28;20021;-73
2023/11/13 02:57:45;;;;;;;0.52;0.52;;;;;;;;;;1031361;28;20602;-73
2023/11/13 02:58:20;;;;;;;0.15;0.15;;;;;;;;;;1034522;28;20505;-73
2023/11/13 02:58:57;;;;;;;7.75;1.30;;;;;;;;;;1034293;28;20025;-73
2023/11/13 02:59:27;;;;;;;0.45;0.30;;;;;;;;;;1034064;28;20029;-73
2023/11/13 02:59:58;;;;;;;0.40;0.40;;;;;;;;;;1035209;28;20036;-73
2023/11/13 03:00:29;;;;;;;0.47;0.32;;;;;;;;;;1033823;28;20124;-73
2023/11/13 03:00:59;;;;;;;1.75;1.55;;;;;;;;;;1029582;28;21114;-73
2023/11/13 03:01:30;;;;;;;1.42;1.17;;;;;;;;;;1029722;28;20579;-73
2023/11/13 03:02:01;;;;;;;0.28;0.28;;;;;;;;;;1033045;28;20029;-73
2023/11/13 03:02:31;;;;;;;1.42;1.35;;;;;;;;;;1035294;28;20219;-74
2023/11/13 03:03:03;;;;;;;1.20;1.10;;;;;;;;;;1035650;28;20761;-73
2023/11/13 03:03:34;;;;;;;0.40;0.40;;;;;;;;;;1032759;28;20096;-73
2023/11/13 03:04:04;;;;;;;0.20;0.20;;;;;;;;;;1031171;28;20096;-73
2023/11/13 03:04:35;;;;;;;0.88;0.75;;;;;;;;;;1031030;28;20612;-73
2023/11/13 03:05:06;;;;;;;1.45;1.23;;;;;;;;;;1033772;28;20517;-73
2023/11/13 03:05:38;;;;;;;5.05;2.17;;;;;;;;;;1034626;28;20072;-73